Time;durP1;ratioP1;P1;durP2;ratioP2;P2;SDS_P1;SDS_P2;PMS_P1;PMS_P2;Temp;Humidity;BMP_temperature;BMP_pressure;BME280_temperature;BME280_humidity;BME280_pressure;Samples;Min_cycle;Max_cycle;Signal;HPM_P1;HPM_P2
2022/12/29 00:01:19;;;;;;;;;;;;;;;13.43;72.70;99600.84;5071581;28;19939;-68
2022/12/29 00:03:47;;;;;;;;;;;;;;;13.42;73.09;99585.75;5079339;28;19930;-68
2022/12/29 00:06:13;;;;;;;;;;;;;;;13.47;71.96;99607.75;5083111;28;20037;-67
2022/12/29 00:08:41;;;;;;;;;;;;;;;13.44;72.29;99598.13;5067760;28;20021;-67
2022/12/29 00:11:10;;;;;;;;;;;;;;;13.46;71.59;99606.03;5074768;28;19933;-67
2022/12/29 00:16:19;;;;;;;;;;;;;;;13.49;72.02;99600.53;5077166;28;20421;-68
2022/12/29 00:18:45;;;;;;;;;;;;;;;13.51;72.12;99599.50;5074571;28;19932;-68
2022/12/29 00:35:08;;;;;;;;;;;;;;;13.63;70.98;99598.00;5083961;28;20003;-67
2022/12/29 00:45:47;;;;;;;;;;;;;;;13.65;70.48;99598.81;5074300;28;20225;-67
2022/12/29 00:48:12;;;;;;;;;;;;;;;13.67;70.74;99605.81;5071689;28;19929;-67
2022/12/29 00:50:37;;;;;;;;;;;;;;;13.63;70.78;99601.56;5071969;28;20035;-67
2022/12/29 00:53:02;;;;;;;;;;;;;;;13.64;70.99;99600.59;5076871;28;19930;-67
2022/12/29 00:55:28;;;;;;;;;;;;;;;13.65;70.76;99606.81;5075177;28;19952;-68
2022/12/29 00:57:53;;;;;;;;;;;;;;;13.60;71.55;99615.09;5075410;28;19948;-68
2022/12/29 01:00:18;;;;;;;;;;;;;;;13.61;71.23;99615.94;5073301;28;20301;-67
2022/12/29 01:02:44;;;;;;;;;;;;;;;13.59;71.79;99613.34;5086353;28;20056;-68
2022/12/29 01:05:09;;;;;;;;;;;;;;;13.52;71.64;99617.28;5082502;28;19986;-67
2022/12/29 01:07:34;;;;;;;;;;;;;;;13.50;71.96;99607.59;5075902;28;19941;-67
2022/12/29 01:10:11;;;;;;;;;;;;;;;13.47;72.01;99602.41;5062129;28;20494;-67
2022/12/29 01:12:40;;;;;;;;;;;;;;;13.47;71.38;99613.09;5090471;28;19954;-67
2022/12/29 01:15:06;;;;;;;;;;;;;;;13.50;72.26;99607.59;5093474;28;19950;-67
2022/12/29 01:17:32;;;;;;;;;;;;;;;13.54;71.04;99610.03;5086832;28;19943;-67
2022/12/29 01:19:57;;;;;;;;;;;;;;;13.54;70.78;99606.53;5073646;28;19934;-66
2022/12/29 01:22:22;;;;;;;;;;;;;;;13.60;71.30;99598.19;5077044;28;19971;-67
2022/12/29 01:24:48;;;;;;;;;;;;;;;13.55;70.40;99598.41;5075839;28;19936;-67
2022/12/29 01:27:14;;;;;;;;;;;;;;;13.60;71.02;99598.19;5082333;28;19979;-67
2022/12/29 01:29:39;;;;;;;;;;;;;;;13.57;70.74;99598.34;5073683;28;20340;-67
2022/12/29 01:32:04;;;;;;;;;;;;;;;13.62;70.63;99590.94;5074858;28;19940;-67
2022/12/29 01:34:29;;;;;;;;;;;;;;;13.65;69.98;99588.13;5093244;28;19999;-68
2022/12/29 01:36:55;;;;;;;;;;;;;;;13.72;69.35;99593.06;5093265;28;20274;-68
2022/12/29 01:39:20;;;;;;;;;;;;;;;13.77;69.25;99595.50;5103284;28;19938;-68
2022/12/29 01:41:45;;;;;;;;;;;;;;;13.75;69.59;99600.94;5113882;28;19962;-67
2022/12/29 01:44:29;;;;;;;;;;;;;;;13.75;68.85;99592.91;5081486;28;20542;-67
2022/12/29 01:46:55;;;;;;;;;;;;;;;13.88;69.04;99590.44;5072915;28;20043;-67
2022/12/29 01:49:26;;;;;;;;;;;;;;;13.93;68.02;99599.09;5072825;28;20017;-67
2022/12/29 01:51:53;;;;;;;;;;;;;;;13.92;67.30;99597.38;5074974;28;19970;-67
2022/12/29 01:54:39;;;;;;;;;;;;;;;13.94;68.43;99603.50;5074246;28;19936;-67
2022/12/29 01:57:09;;;;;;;;;;;;;;;13.98;67.72;99600.59;5092435;28;19991;-67
2022/12/29 01:59:38;;;;;;;;;;;;;;;13.97;66.57;99603.34;5093299;28;19937;-67
2022/12/29 02:02:04;;;;;;;;;;;;;;;14.03;66.87;99592.31;5083313;28;19938;-67
2022/12/29 02:04:31;;;;;;;;;;;;;;;14.01;66.84;99604.91;5082629;28;20001;-67
2022/12/29 02:07:02;;;;;;;;;;;;;;;13.98;67.72;99600.59;5072431;28;19937;-67
2022/12/29 02:09:27;;;;;;;;;;;;;;;13.91;67.19;99588.47;5074974;28;20298;-67
2022/12/29 02:11:53;;;;;;;;;;;;;;;13.85;67.41;99595.97;5072023;28;19926;-66
2022/12/29 02:14:19;;;;;;;;;;;;;;;13.84;67.69;99600.44;5071991;28;19925;-67
2022/12/29 02:16:44;;;;;;;;;;;;;;;13.78;68.55;99605.25;5081946;28;19930;-67
2022/12/29 02:19:36;;;;;;;;;;;;;;;13.77;68.30;99592.84;5092510;28;20014;-67
2022/12/29 02:22:18;;;;;;;;;;;;;;;13.74;68.38;99598.34;5078188;28;19934;-67
2022/12/29 02:25:01;;;;;;;;;;;;;;;13.69;68.61;99601.22;5071358;28;19937;-68
2022/12/29 02:27:27;;;;;;;;;;;;;;;13.76;67.68;99604.44;5074237;28;19939;-68
2022/12/29 02:30:03;;;;;;;;;;;;;;;13.74;69.24;99601.03;5072343;28;19928;-68
2022/12/29 02:32:31;;;;;;;;;;;;;;;13.77;68.17;99582.97;5071986;28;19973;-68
2022/12/29 02:35:03;;;;;;;;;;;;;;;13.86;68.69;99589.66;5083796;28;19953;-68
2022/12/29 02:37:34;;;;;;;;;;;;;;;13.86;68.57;99562.94;5076707;28;19944;-66
2022/12/29 02:40:05;;;;;;;;;;;;;;;13.86;68.03;99554.91;5082629;28;19983;-68
2022/12/29 02:42:40;;;;;;;;;;;;;;;13.81;68.96;99555.16;5088392;28;20058;-67
2022/12/29 02:45:10;;;;;;;;;;;;;;;13.77;70.21;99560.75;5092108;28;19929;-68
2022/12/29 02:47:37;;;;;;;;;;;;;;;13.68;70.73;99558.56;5089090;28;19929;-68
2022/12/29 02:50:05;;;;;;;;;;;;;;;13.66;70.50;99560.44;5071727;28;19970;-68
2022/12/29 02:52:36;;;;;;;;;;;;;;;13.61;71.12;99552.66;5071686;28;19952;-68
2022/12/29 02:55:01;;;;;;;;;;;;;;;13.59;71.86;99549.19;5071665;28;19946;-68
2022/12/29 02:57:29;;;;;;;;;;;;;;;13.54;72.33;99550.41;5074118;28;20047;-68
2022/12/29 03:00:00;;;;;;;;;;;;;;;13.53;72.16;99559.34;5071516;28;19939;-68
2022/12/29 03:02:44;;;;;;;;;;;;;;;13.54;71.85;99555.75;5072134;28;20025;-68
2022/12/29 03:05:27;;;;;;;;;;;;;;;13.54;72.15;99551.25;5080300;28;20422;-68
2022/12/29 03:08:00;;;;;;;;;;;;;;;13.52;71.65;99537.13;5073716;28;19933;-68
2022/12/29 03:10:41;;;;;;;;;;;;;;;13.47;73.06;99527.63;5071590;28;19932;-68
2022/12/29 03:16:07;;;;;;;;;;;;;;;13.36;73.27;99535.31;5071375;28;20322;-67
2022/12/29 03:18:39;;;;;;;;;;;;;;;13.27;73.59;99536.66;5088493;28;19939;-68
2022/12/29 03:21:07;;;;;;;;;;;;;;;13.21;74.13;99537.81;5091464;28;19985;-68
2022/12/29 03:23:34;;;;;;;;;;;;;;;13.20;74.11;99530.75;5083968;28;20076;-67
2022/12/29 03:26:02;;;;;;;;;;;;;;;13.17;74.21;99540.72;5071658;28;20400;-68
2022/12/29 03:28:34;;;;;;;;;;;;;;;13.13;74.66;99537.34;5071614;28;20601;-67
2022/12/29 03:31:00;;;;;;;;;;;;;;;13.12;75.01;99548.97;5072274;28;20016;-67
2022/12/29 03:33:28;;;;;;;;;;;;;;;13.13;74.83;99540.03;5071331;28;20061;-67
2022/12/29 03:35:57;;;;;;;;;;;;;;;13.23;74.97;99550.25;5103142;28;20604;-67
2022/12/29 03:38:22;;;;;;;;;;;;;;;13.29;74.47;99540.13;5101104;28;20396;-67
2022/12/29 03:40:49;;;;;;;;;;;;;;;13.38;74.14;99538.78;5078619;28;19989;-67
2022/12/29 03:43:15;;;;;;;;;;;;;;;13.50;73.19;99540.81;5095783;28;19941;-68
2022/12/29 03:45:40;;;;;;;;;;;;;;;13.58;72.66;99544.81;5098233;28;19936;-67
2022/12/29 03:48:06;;;;;;;;;;;;;;;13.64;72.70;99524.94;5085155;28;19937;-68
2022/12/29 03:50:31;;;;;;;;;;;;;;;13.64;72.62;99520.44;5075021;28;19958;-67
2022/12/29 03:52:56;;;;;;;;;;;;;;;13.62;71.91;99508.09;5077602;28;20281;-68
2022/12/29 03:55:21;;;;;;;;;;;;;;;13.62;71.99;99510.78;5075308;28;19951;-67
2022/12/29 03:57:47;;;;;;;;;;;;;;;13.57;72.38;99505.69;5075006;28;19976;-68
2022/12/29 04:00:13;;;;;;;;;;;;;;;13.50;72.54;99506.06;5077645;28;20025;-68
2022/12/29 04:02:38;;;;;;;;;;;;;;;13.42;72.70;99510.94;5075386;28;20407;-68
2022/12/29 04:05:03;;;;;;;;;;;;;;;13.37;72.26;99513.00;5084421;28;20167;-68
2022/12/29 04:07:29;;;;;;;;;;;;;;;13.33;71.79;99504.28;5075092;28;20055;-68
2022/12/29 04:09:54;;;;;;;;;;;;;;;13.36;71.14;99508.63;5077116;28;19975;-66
2022/12/29 04:12:19;;;;;;;;;;;;;;;13.38;71.17;99507.56;5074604;28;19984;-66
2022/12/29 04:14:44;;;;;;;;;;;;;;;13.34;71.23;99491.78;5077026;28;20010;-67
2022/12/29 04:17:10;;;;;;;;;;;;;;;13.28;71.00;99497.47;5077293;28;19934;-67
2022/12/29 04:19:35;;;;;;;;;;;;;;;13.23;71.57;99502.19;5094651;28;20357;-67
2022/12/29 04:22:00;;;;;;;;;;;;;;;13.17;71.97;99509.56;5074879;28;19930;-67
2022/12/29 04:24:25;;;;;;;;;;;;;;;13.05;72.14;99510.16;5074716;28;19931;-67
2022/12/29 04:26:51;;;;;;;;;;;;;;;13.08;72.72;99507.34;5074417;28;20467;-66
2022/12/29 04:29:16;;;;;;;;;;;;;;;13.01;72.69;99513.09;5076798;28;20025;-67
2022/12/29 04:31:41;;;;;;;;;;;;;;;12.91;73.72;99512.66;5070952;28;20565;-66
2022/12/29 04:34:06;;;;;;;;;;;;;;;12.91;73.46;99528.66;5076090;28;20027;-66
2022/12/29 04:36:32;;;;;;;;;;;;;;;12.89;74.62;99516.31;5076195;28;19961;-66
2022/12/29 04:38:57;;;;;;;;;;;;;;;12.87;74.54;99513.72;5073762;28;20335;-67
2022/12/29 04:41:23;;;;;;;;;;;;;;;12.79;75.87;99512.38;5076089;28;19977;-67
2022/12/29 04:43:48;;;;;;;;;;;;;;;12.73;76.17;99502.91;5073781;28;19931;-67
2022/12/29 04:46:13;;;;;;;;;;;;;;;12.77;76.12;99507.13;5073672;28;20331;-67
2022/12/29 04:48:38;;;;;;;;;;;;;;;12.83;75.72;99503.28;5088568;28;19969;-66
2022/12/29 04:51:04;;;;;;;;;;;;;;;12.87;75.60;99510.19;5094232;28;20376;-67
2022/12/29 04:53:29;;;;;;;;;;;;;;;12.80;76.42;99506.97;5090370;28;19940;-67
2022/12/29 04:55:54;;;;;;;;;;;;;;;12.82;76.41;99499.75;5093891;28;20011;-66
2022/12/29 04:58:20;;;;;;;;;;;;;;;12.82;76.68;99506.88;5092142;28;19929;-67
2022/12/29 05:00:45;;;;;;;;;;;;;;;12.87;76.86;99513.72;5091939;28;19929;-66
2022/12/29 05:03:10;;;;;;;;;;;;;;;12.89;76.68;99503.84;5093722;28;19931;-67
2022/12/29 05:05:36;;;;;;;;;;;;;;;13.02;76.23;99504.13;5081552;28;19960;-67
2022/12/29 05:08:01;;;;;;;;;;;;;;;13.07;76.35;99494.06;5073621;28;20674;-67
2022/12/29 05:10:26;;;;;;;;;;;;;;;13.07;76.16;99497.63;5073950;28;19965;-67
2022/12/29 05:12:51;;;;;;;;;;;;;;;13.04;75.77;99502.25;5078344;28;19981;-67
2022/12/29 05:15:17;;;;;;;;;;;;;;;13.07;75.92;99484.25;5078917;28;19957;-67
2022/12/29 05:17:42;;;;;;;;;;;;;;;13.02;75.92;99493.44;5072846;28;20366;-67
2022/12/29 05:20:08;;;;;;;;;;;;;;;13.00;76.17;99482.81;5078894;28;19939;-67
2022/12/29 05:22:33;;;;;;;;;;;;;;;13.05;76.76;99480.81;5092877;28;19931;-67
2022/12/29 05:24:58;;;;;;;;;;;;;;;13.04;76.20;99481.75;5074719;28;19959;-66
2022/12/29 05:27:24;;;;;;;;;;;;;;;13.02;76.70;99480.97;5072842;28;20665;-67
2022/12/29 05:29:49;;;;;;;;;;;;;;;13.00;76.31;99472.13;5075510;28;19930;-67
2022/12/29 05:32:14;;;;;;;;;;;;;;;13.06;76.74;99469.16;5073628;28;20394;-67
2022/12/29 05:34:39;;;;;;;;;;;;;;;13.03;76.78;99477.34;5080087;28;19945;-67
2022/12/29 05:37:05;;;;;;;;;;;;;;;12.99;77.12;99473.09;5093625;28;20391;-67
2022/12/29 05:39:30;;;;;;;;;;;;;;;12.98;76.80;99475.84;5077669;28;19944;-67
2022/12/29 05:41:55;;;;;;;;;;;;;;;12.96;77.20;99483.88;5072849;28;20404;-67
2022/12/29 05:44:21;;;;;;;;;;;;;;;12.96;76.97;99480.38;5077385;28;20020;-67
2022/12/29 05:46:46;;;;;;;;;;;;;;;12.97;76.98;99484.75;5072295;28;20005;-67
2022/12/29 05:49:11;;;;;;;;;;;;;;;12.99;76.64;99482.88;5054379;28;19971;-66
2022/12/29 05:51:37;;;;;;;;;;;;;;;13.06;76.66;99474.50;5074732;28;20490;-67
2022/12/29 05:54:02;;;;;;;;;;;;;;;13.12;76.55;99484.91;5075086;28;20028;-67
2022/12/29 05:56:27;;;;;;;;;;;;;;;13.16;75.78;99470.44;5094737;28;19953;-68
2022/12/29 05:58:53;;;;;;;;;;;;;;;13.27;75.34;99471.69;5090512;28;20591;-68
2022/12/29 06:01:18;;;;;;;;;;;;;;;13.28;74.65;99458.25;5074663;28;19971;-67
2022/12/29 06:03:43;;;;;;;;;;;;;;;13.36;73.52;99468.53;5077334;28;19930;-67
2022/12/29 06:06:08;;;;;;;;;;;;;;;13.44;73.57;99471.66;5092649;28;19934;-68
2022/12/29 06:08:34;;;;;;;;;;;;;;;13.45;72.73;99468.03;5092914;28;20265;-67
2022/12/29 06:10:59;;;;;;;;;;;;;;;13.56;72.50;99468.38;5079071;28;19937;-68
2022/12/29 06:13:24;;;;;;;;;;;;;;;13.59;71.54;99468.19;5072340;28;19931;-68
2022/12/29 06:15:50;;;;;;;;;;;;;;;13.64;71.78;99463.47;5072398;28;19950;-67
2022/12/29 06:18:15;;;;;;;;;;;;;;;13.61;71.82;99468.94;5071603;28;19925;-67
2022/12/29 06:20:41;;;;;;;;;;;;;;;13.63;71.57;99459.03;5108404;28;19940;-67
2022/12/29 06:23:06;;;;;;;;;;;;;;;13.67;71.65;99455.28;5112158;28;19971;-67
2022/12/29 06:25:33;;;;;;;;;;;;;;;13.74;71.16;99459.34;5089713;28;19938;-67
2022/12/29 06:27:58;;;;;;;;;;;;;;;13.72;70.54;99442.53;5071135;28;20013;-67
2022/12/29 06:30:24;;;;;;;;;;;;;;;13.74;70.95;99456.69;5071430;28;20021;-67
2022/12/29 06:32:49;;;;;;;;;;;;;;;13.68;71.06;99457.00;5074115;28;20032;-66
2022/12/29 06:35:15;;;;;;;;;;;;;;;13.77;69.92;99461.84;5083772;28;19954;-66
2022/12/29 06:37:40;;;;;;;;;;;;;;;13.78;69.96;99456.44;5092188;28;19947;-66
2022/12/29 06:40:05;;;;;;;;;;;;;;;13.76;70.48;99460.09;5087707;28;19937;-66
2022/12/29 06:42:31;;;;;;;;;;;;;;;13.70;70.29;99461.31;5094406;28;20019;-66
2022/12/29 06:44:58;;;;;;;;;;;;;;;13.69;69.79;99462.25;5090712;28;19933;-66
2022/12/29 06:47:24;;;;;;;;;;;;;;;13.71;69.94;99462.16;5087919;28;19945;-66
2022/12/29 06:49:49;;;;;;;;;;;;;;;13.68;69.23;99457.88;5091713;28;19958;-66
2022/12/29 06:52:15;;;;;;;;;;;;;;;13.78;69.75;99458.22;5084488;28;19942;-67
2022/12/29 06:54:40;;;;;;;;;;;;;;;13.72;69.51;99443.38;5071367;28;20033;-66
2022/12/29 06:57:05;;;;;;;;;;;;;;;13.71;69.30;99463.03;5084884;28;19936;-66
2022/12/29 06:59:30;;;;;;;;;;;;;;;13.78;69.14;99469.78;5088408;28;19939;-67
2022/12/29 07:01:56;;;;;;;;;;;;;;;13.78;67.77;99466.25;5092288;28;20520;-67
2022/12/29 07:04:21;;;;;;;;;;;;;;;13.83;68.02;99461.50;5086460;28;19953;-66
2022/12/29 07:06:47;;;;;;;;;;;;;;;13.88;67.41;99454.09;5073071;28;19945;-67
2022/12/29 07:09:12;;;;;;;;;;;;;;;13.88;66.97;99459.44;5070713;28;19937;-66
2022/12/29 07:11:37;;;;;;;;;;;;;;;13.91;67.30;99469.97;5074939;28;20044;-66
2022/12/29 07:14:03;;;;;;;;;;;;;;;13.89;67.12;99469.19;5090841;28;19931;-66
2022/12/29 07:16:29;;;;;;;;;;;;;;;13.87;67.64;99471.09;5091034;28;20524;-66
2022/12/29 07:18:55;;;;;;;;;;;;;;;13.83;67.17;99474.88;5084246;28;19930;-66
2022/12/29 07:21:20;;;;;;;;;;;;;;;13.83;66.80;99488.25;5090569;28;19935;-66
2022/12/29 07:23:45;;;;;;;;;;;;;;;13.87;67.51;99489.81;5088219;28;19932;-66
2022/12/29 07:26:12;;;;;;;;;;;;;;;13.90;66.78;99495.00;5071210;28;20323;-66
2022/12/29 07:28:41;;;;;;;;;;;;;;;13.95;66.73;99490.25;5071400;28;20027;-66
2022/12/29 07:31:12;;;;;;;;;;;;;;;13.92;66.93;99495.78;5073416;28;19936;-66
2022/12/29 07:33:37;;;;;;;;;;;;;;;13.87;66.52;99495.16;5070998;28;19937;-66
2022/12/29 07:36:03;;;;;;;;;;;;;;;13.86;66.91;99498.75;5087367;28;19951;-66
2022/12/29 07:38:28;;;;;;;;;;;;;;;13.86;67.29;99499.63;5071234;28;19938;-66
2022/12/29 07:40:56;;;;;;;;;;;;;;;13.84;67.13;99509.53;5071468;28;19931;-66
2022/12/29 07:43:22;;;;;;;;;;;;;;;13.89;67.50;99509.28;5077434;28;19934;-65
2022/12/29 07:45:48;;;;;;;;;;;;;;;13.92;67.28;99493.09;5062770;28;19946;-66
2022/12/29 07:48:13;;;;;;;;;;;;;;;13.91;67.09;99510.06;5090518;28;19933;-66
2022/12/29 07:50:38;;;;;;;;;;;;;;;13.90;66.26;99511.03;5072930;28;20013;-66
2022/12/29 07:53:03;;;;;;;;;;;;;;;13.97;66.48;99501.75;5070640;28;19934;-66
2022/12/29 07:55:29;;;;;;;;;;;;;;;14.01;66.11;99487.25;5089434;28;19950;-66
2022/12/29 07:57:54;;;;;;;;;;;;;;;14.05;66.03;99505.69;5088117;28;19939;-66
2022/12/29 08:00:20;;;;;;;;;;;;;;;14.04;66.49;99512.00;5071368;28;20357;-67
2022/12/29 08:02:46;;;;;;;;;;;;;;;14.08;66.42;99531.44;5070864;28;19931;-67
2022/12/29 08:05:11;;;;;;;;;;;;;;;14.12;66.09;99535.66;5083257;28;19956;-68
2022/12/29 08:07:37;;;;;;;;;;;;;;;14.12;66.21;99538.31;5071580;28;19930;-67
2022/12/29 08:10:02;;;;;;;;;;;;;;;14.12;65.65;99551.69;5070979;28;19964;-67
2022/12/29 08:12:28;;;;;;;;;;;;;;;14.14;66.61;99557.84;5074438;28;19942;-67
2022/12/29 08:14:53;;;;;;;;;;;;;;;14.11;65.79;99560.69;5071900;28;19999;-67
2022/12/29 08:17:18;;;;;;;;;;;;;;;14.07;66.40;99559.97;5073761;28;20003;-67
2022/12/29 08:19:43;;;;;;;;;;;;;;;14.09;66.23;99568.78;5071591;28;19941;-67
2022/12/29 08:22:09;;;;;;;;;;;;;;;14.16;65.77;99572.00;5073095;28;19958;-67
2022/12/29 08:24:35;;;;;;;;;;;;;;;14.13;66.45;99573.03;5074800;28;19955;-67
2022/12/29 08:27:00;;;;;;;;;;;;;;;14.12;67.04;99570.41;5076746;28;19945;-67
2022/12/29 08:29:25;;;;;;;;;;;;;;;14.16;66.47;99577.34;5076558;28;19938;-67
2022/12/29 08:31:51;;;;;;;;;;;;;;;14.11;65.79;99582.06;5077446;28;20003;-67
2022/12/29 08:34:16;;;;;;;;;;;;;;;14.15;66.18;99575.63;5079184;28;19931;-67
2022/12/29 08:36:41;;;;;;;;;;;;;;;14.18;65.99;99580.81;5076114;28;19956;-67
2022/12/29 08:39:07;;;;;;;;;;;;;;;14.20;66.94;99590.47;5079736;28;19959;-67
2022/12/29 08:41:32;;;;;;;;;;;;;;;14.13;67.26;99583.75;5090760;28;20316;-68
2022/12/29 08:43:57;;;;;;;;;;;;;;;14.15;65.91;99589.84;5089184;28;19933;-67
2022/12/29 08:46:22;;;;;;;;;;;;;;;14.21;66.77;99596.69;5074180;28;19996;-67
2022/12/29 08:48:48;;;;;;;;;;;;;;;14.21;66.31;99591.34;5074251;28;20436;-67
2022/12/29 08:51:13;;;;;;;;;;;;;;;14.26;67.21;99590.19;5075935;28;20010;-67
2022/12/29 08:53:38;;;;;;;;;;;;;;;14.25;66.92;99582.22;5073962;28;19943;-67
2022/12/29 08:56:04;;;;;;;;;;;;;;;14.23;66.81;99573.41;5076361;28;19958;-68
2022/12/29 08:58:29;;;;;;;;;;;;;;;14.27;66.93;99580.31;5094039;28;19945;-67
2022/12/29 09:00:55;;;;;;;;;;;;;;;14.31;67.78;99581.91;5089752;28;20396;-67
2022/12/29 09:03:21;;;;;;;;;;;;;;;14.38;67.20;99583.31;5060848;28;19945;-67
2022/12/29 09:05:50;;;;;;;;;;;;;;;14.44;67.47;99591.84;5077481;28;19984;-67
2022/12/29 09:08:16;;;;;;;;;;;;;;;14.49;67.83;99576.41;5087428;28;19936;-67
2022/12/29 09:10:42;;;;;;;;;;;;;;;14.55;66.96;99585.88;5093401;28;20453;-67
2022/12/29 09:13:07;;;;;;;;;;;;;;;14.65;67.58;99591.59;5087544;28;19926;-67
2022/12/29 09:15:32;;;;;;;;;;;;;;;14.74;67.10;99591.97;5079889;28;20947;-67
2022/12/29 09:17:57;;;;;;;;;;;;;;;14.82;67.07;99603.09;5093803;28;19924;-68
2022/12/29 09:20:23;;;;;;;;;;;;;;;14.90;67.23;99606.22;5093778;28;19933;-67
2022/12/29 09:22:48;;;;;;;;;;;;;;;14.93;66.74;99600.66;5090217;28;20365;-67
2022/12/29 09:25:13;;;;;;;;;;;;;;;15.00;66.87;99596.69;5094106;28;20303;-67
2022/12/29 09:27:39;;;;;;;;;;;;;;;15.10;66.34;99594.34;5089645;28;19931;-67
2022/12/29 09:30:06;;;;;;;;;;;;;;;15.20;66.50;99596.44;5092711;28;20386;-68
2022/12/29 09:32:31;;;;;;;;;;;;;;;16.42;61.89;99596.13;5093581;28;19930;-68
2022/12/29 09:34:56;;;;;;;;;;;;;;;16.69;60.23;99605.13;5088019;28;20352;-68
2022/12/29 09:37:22;;;;;;;;;;;;;;;16.46;60.70;99608.41;5093340;28;19936;-67
2022/12/29 09:39:47;;;;;;;;;;;;;;;16.12;62.44;99603.41;5093454;28;19929;-68
2022/12/29 09:42:12;;;;;;;;;;;;;;;15.90;63.86;99609.22;5093147;28;19932;-67
2022/12/29 09:44:50;;;;;;;;;;;;;;;15.74;64.18;99611.09;5089722;28;19992;-68
2022/12/29 09:47:16;;;;;;;;;;;;;;;15.67;64.55;99617.78;5074947;28;20085;-67
2022/12/29 09:49:49;;;;;;;;;;;;;;;15.65;65.37;99619.66;5092975;28;19998;-68
2022/12/29 09:52:29;;;;;;;;;;;;;;;15.71;66.15;99613.97;5088716;28;19949;-68
2022/12/29 09:54:57;;;;;;;;;;;;;;;16.66;62.66;99621.44;5089286;28;20053;-68
2022/12/29 09:57:26;;;;;;;;;;;;;;;17.31;59.61;99617.19;5088559;28;20295;-68
2022/12/29 09:59:54;;;;;;;;;;;;;;;17.98;56.65;99612.56;5092146;28;19957;-68
2022/12/29 10:02:19;;;;;;;;;;;;;;;17.96;56.83;99619.00;5081900;28;19991;-67
2022/12/29 10:04:44;;;;;;;;;;;;;;;17.26;58.64;99614.81;5080845;28;19975;-68
2022/12/29 10:07:17;;;;;;;;;;;;;;;16.77;61.41;99616.28;5071790;28;19944;-68
2022/12/29 10:09:47;;;;;;;;;;;;;;;16.77;62.25;99621.66;5072442;28;20418;-68
2022/12/29 10:12:13;;;;;;;;;;;;;;;16.93;62.35;99625.06;5074812;28;19965;-68
2022/12/29 10:14:47;;;;;;;;;;;;;;;17.34;60.22;99619.66;5072224;28;20400;-67
2022/12/29 10:17:21;;;;;;;;;;;;;;;17.29;60.34;99617.28;5094179;28;19952;-67
2022/12/29 10:20:12;;;;;;;;;;;;;;;17.41;59.55;99616.50;5089804;28;20000;-68
2022/12/29 10:22:38;;;;;;;;;;;;;;;17.07;60.34;99619.66;5092822;28;20033;-68
2022/12/29 10:25:11;;;;;;;;;;;;;;;16.71;62.19;99619.34;5092484;28;20035;-67
2022/12/29 10:27:37;;;;;;;;;;;;;;;16.61;63.18;99618.19;5092910;28;19951;-67
2022/12/29 10:30:03;;;;;;;;;;;;;;;16.39;63.34;99624.00;5082881;28;19970;-68
2022/12/29 10:32:28;;;;;;;;;;;;;;;16.37;64.24;99625.09;5088147;28;20410;-67
2022/12/29 10:34:59;;;;;;;;;;;;;;;16.35;64.54;99621.63;5088002;28;19978;-67
2022/12/29 10:37:25;;;;;;;;;;;;;;;16.29;64.83;99622.84;5072052;28;19967;-68
2022/12/29 10:39:51;;;;;;;;;;;;;;;16.32;64.52;99627.19;5073156;28;19947;-67
2022/12/29 10:42:26;;;;;;;;;;;;;;;16.26;64.55;99622.22;5075567;28;19951;-67
2022/12/29 10:44:51;;;;;;;;;;;;;;;16.15;64.16;99619.31;5091877;28;20433;-67
2022/12/29 10:47:19;;;;;;;;;;;;;;;16.14;65.04;99615.78;5084239;28;20035;-67
2022/12/29 10:49:47;;;;;;;;;;;;;;;16.06;65.38;99619.88;5071828;28;19980;-67
2022/12/29 10:52:13;;;;;;;;;;;;;;;16.01;64.50;99612.13;5071926;28;19963;-67
2022/12/29 10:54:44;;;;;;;;;;;;;;;15.90;64.35;99613.72;5057245;28;19961;-67
2022/12/29 10:57:13;;;;;;;;;;;;;;;15.99;65.40;99607.78;5076263;28;19952;-67
2022/12/29 10:59:38;;;;;;;;;;;;;;;15.93;65.92;99600.97;5071985;28;20388;-67
2022/12/29 11:02:06;;;;;;;;;;;;;;;15.86;65.23;99598.75;5083871;28;19944;-67
2022/12/29 11:04:32;;;;;;;;;;;;;;;15.85;65.58;99597.88;5085655;28;19970;-67
2022/12/29 11:06:57;;;;;;;;;;;;;;;15.86;64.70;99601.44;5077040;28;20412;-67
2022/12/29 11:09:30;;;;;;;;;;;;;;;15.86;64.65;99596.97;5091950;28;20483;-67
2022/12/29 11:11:56;;;;;;;;;;;;;;;15.98;63.52;99600.72;5089515;28;19993;-67
2022/12/29 11:14:26;;;;;;;;;;;;;;;15.96;62.85;99602.63;5074783;28;19953;-67
2022/12/29 11:16:58;;;;;;;;;;;;;;;15.92;61.96;99606.44;5087993;28;20018;-68
2022/12/29 11:19:28;;;;;;;;;;;;;;;15.86;62.23;99607.69;5091410;28;20356;-67
2022/12/29 11:21:54;;;;;;;;;;;;;;;15.96;62.59;99624.09;5085911;28;19968;-68
2022/12/29 11:24:24;;;;;;;;;;;;;;;16.86;59.67;99610.31;5090164;28;20318;-67
2022/12/29 11:26:50;;;;;;;;;;;;;;;17.76;55.34;99617.69;5090604;28;19942;-68
2022/12/29 11:29:15;;;;;;;;;;;;;;;17.55;55.21;99616.44;5090889;28;19950;-68
2022/12/29 11:31:42;;;;;;;;;;;;;;;17.34;56.80;99620.53;5076680;28;19953;-68
2022/12/29 11:34:08;;;;;;;;;;;;;;;17.24;57.29;99627.50;5088694;28;20404;-68
2022/12/29 11:36:34;;;;;;;;;;;;;;;16.93;58.94;99630.44;5090757;28;19975;-67
2022/12/29 11:38:59;;;;;;;;;;;;;;;16.68;59.36;99630.28;5077319;28;19946;-67
2022/12/29 11:41:27;;;;;;;;;;;;;;;16.52;61.03;99629.53;5071246;28;20048;-67
2022/12/29 11:43:56;;;;;;;;;;;;;;;16.42;61.45;99634.59;5073305;28;19948;-68
2022/12/29 11:46:31;;;;;;;;;;;;;;;16.37;60.89;99625.09;5071121;28;20056;-68
2022/12/29 11:48:59;;;;;;;;;;;;;;;16.35;62.22;99622.50;5071111;28;19945;-67
2022/12/29 11:51:26;;;;;;;;;;;;;;;16.35;61.48;99618.94;5073376;28;20412;-67
2022/12/29 11:53:55;;;;;;;;;;;;;;;16.28;62.02;99612.22;5083592;28;19942;-68
2022/12/29 11:56:22;;;;;;;;;;;;;;;16.22;61.56;99609.94;5087077;28;19981;-67
2022/12/29 11:58:49;;;;;;;;;;;;;;;16.24;62.81;99608.03;5094829;28;20479;-67
2022/12/29 12:01:23;;;;;;;;;;;;;;;16.31;63.08;99614.75;5095449;28;19946;-68
2022/12/29 12:03:52;;;;;;;;;;;;;;;16.23;63.51;99606.28;5090991;28;19965;-68
2022/12/29 12:06:20;;;;;;;;;;;;;;;16.22;63.23;99609.94;5083965;28;19949;-68
2022/12/29 12:08:54;;;;;;;;;;;;;;;16.31;64.29;99614.75;5075031;28;19953;-67
2022/12/29 12:11:33;;;;;;;;;;;;;;;16.34;64.98;99598.44;5111904;28;20370;-67
2022/12/29 12:14:04;;;;;;;;;;;;;;;16.25;65.32;99593.63;5104794;28;19954;-68
2022/12/29 12:16:55;;;;;;;;;;;;;;;16.21;67.24;99601.00;5074399;28;19975;-67
2022/12/29 12:19:39;;;;;;;;;;;;;;;15.96;67.23;99591.88;5070058;28;20372;-67
2022/12/29 12:22:15;;;;;;;;;;;;;;;15.92;68.28;99601.06;5094887;28;20309;-68
2022/12/29 12:24:59;;;;;;;;;;;;;;;15.89;69.49;99601.25;5094910;28;19940;-68
2022/12/29 12:27:29;;;;;;;;;;;;;;;15.83;69.85;99599.84;5078271;28;19962;-67
2022/12/29 12:30:05;;;;;;;;;;;;;;;15.72;70.12;99592.41;5084942;28;19994;-69
2022/12/29 12:32:53;;;;;;;;;;;;;;;15.70;69.62;99586.28;5093761;28;20328;-67
2022/12/29 12:35:39;;;;;;;;;;;;;;;15.72;69.78;99584.38;5087777;28;19979;-67
2022/12/29 12:38:07;;;;;;;;;;;;;;;15.71;69.91;99582.66;5081373;28;19951;-67
2022/12/29 12:40:51;;;;;;;;;;;;;;;15.67;69.96;99580.22;5090643;28;19954;-68
2022/12/29 12:43:16;;;;;;;;;;;;;;;15.61;69.80;99576.13;5092372;28;19946;-68
2022/12/29 12:45:44;;;;;;;;;;;;;;;15.60;70.65;99584.25;5085789;28;19948;-67
2022/12/29 12:48:28;;;;;;;;;;;;;;;15.56;71.83;99577.34;5075872;28;19944;-66
2022/12/29 12:51:13;;;;;;;;;;;;;;;15.46;71.70;99579.72;5073950;28;19986;-65
2022/12/29 12:53:48;;;;;;;;;;;;;;;15.40;72.23;99579.22;5084090;28;19953;-65
2022/12/29 12:56:37;;;;;;;;;;;;;;;15.37;72.14;99577.53;5094601;28;19967;-65
2022/12/29 12:59:13;;;;;;;;;;;;;;;15.34;72.51;99564.31;5088612;28;19949;-67
2022/12/29 13:01:46;;;;;;;;;;;;;;;15.21;73.61;99571.34;5089824;28;20057;-67
2022/12/29 13:04:30;;;;;;;;;;;;;;;15.22;74.15;99574.91;5090951;28;20456;-67
2022/12/29 13:06:55;;;;;;;;;;;;;;;15.24;75.32;99570.28;5074696;28;19946;-66
2022/12/29 13:09:27;;;;;;;;;;;;;;;15.25;76.72;99564.00;5077041;28;20694;-66
2022/12/29 13:12:02;;;;;;;;;;;;;;;15.10;79.46;99573.78;5084914;28;20044;-66
2022/12/29 13:14:37;;;;;;;;;;;;;;;15.03;79.99;99571.53;5086593;28;19941;-66
2022/12/29 13:17:11;;;;;;;;;;;;;;;14.97;80.46;99563.88;5086608;28;20015;-66
2022/12/29 13:20:01;;;;;;;;;;;;;;;14.83;82.26;99564.66;5090358;28;19977;-66